createdAt,value
2018-08-13T00:00:58.276Z,20.30
2018-08-13T00:03:26.800Z,20.30
2018-08-13T00:05:55.320Z,20.30
2018-08-13T00:08:23.848Z,20.30
2018-08-13T00:10:52.361Z,20.20
2018-08-13T00:13:20.908Z,20.20
2018-08-13T00:15:49.531Z,20.20
2018-08-13T00:18:18.112Z,20.10
2018-08-13T00:20:46.705Z,20.00
2018-08-13T00:23:15.188Z,20.00
2018-08-13T00:25:43.720Z,19.90
2018-08-13T00:28:12.325Z,19.90
2018-08-13T00:30:41.077Z,19.80
2018-08-13T00:33:10.936Z,19.80
2018-08-13T00:35:39.716Z,19.80
2018-08-13T00:38:08.676Z,19.70
2018-08-13T00:40:37.387Z,19.50
2018-08-13T00:43:06.384Z,19.50
2018-08-13T00:45:34.928Z,19.40
2018-08-13T00:48:03.488Z,19.30
2018-08-13T00:50:32.073Z,19.30
2018-08-13T00:53:00.573Z,19.40
2018-08-13T00:55:29.200Z,19.30
2018-08-13T00:57:57.740Z,19.30
2018-08-13T01:00:26.341Z,19.30
2018-08-13T01:02:54.896Z,19.20
2018-08-13T01:05:23.419Z,19.20
2018-08-13T01:07:52.022Z,19.20
2018-08-13T01:10:21.909Z,19.20
2018-08-13T01:12:50.480Z,19.20
2018-08-13T01:15:19.994Z,19.10
2018-08-13T01:17:49.611Z,19.00
2018-08-13T01:20:19.212Z,19.00
2018-08-13T01:22:47.780Z,19.00
2018-08-13T01:25:17.619Z,19.00
2018-08-13T01:27:46.292Z,19.00
2018-08-13T01:30:16.428Z,18.90
2018-08-13T01:32:44.964Z,18.90
2018-08-13T01:35:13.516Z,18.90
2018-08-13T01:37:42.064Z,18.80
2018-08-13T01:40:11.684Z,18.70
2018-08-13T01:42:40.221Z,18.70
2018-08-13T01:45:10.687Z,18.70
2018-08-13T01:47:39.729Z,18.70
2018-08-13T01:50:09.819Z,18.70
2018-08-13T01:52:38.331Z,18.60
2018-08-13T01:55:08.229Z,18.50
2018-08-13T01:57:36.739Z,18.50
2018-08-13T02:00:09.284Z,18.50
2018-08-13T02:02:37.845Z,18.50
2018-08-13T02:05:06.869Z,18.40
2018-08-13T02:07:35.616Z,18.40
2018-08-13T02:10:04.872Z,18.40
2018-08-13T02:12:33.404Z,18.30
2018-08-13T02:15:01.919Z,18.40
2018-08-13T02:17:30.484Z,18.30
2018-08-13T02:19:59.024Z,18.30
2018-08-13T02:22:27.532Z,18.20
2018-08-13T02:24:56.070Z,18.20
2018-08-13T02:27:24.564Z,18.10
2018-08-13T02:29:53.071Z,18.10
2018-08-13T02:32:21.548Z,18.00
2018-08-13T02:34:50.068Z,18.00
2018-08-13T02:37:18.580Z,18.10
2018-08-13T02:39:47.077Z,18.00
2018-08-13T02:42:15.623Z,17.90
2018-08-13T02:44:44.100Z,17.80
2018-08-13T02:47:12.578Z,17.80
2018-08-13T02:49:41.068Z,17.80
2018-08-13T02:52:09.556Z,17.80
2018-08-13T02:54:38.072Z,17.70
2018-08-13T02:57:07.085Z,17.80
2018-08-13T02:59:35.724Z,17.70
2018-08-13T03:02:04.449Z,17.70
2018-08-13T03:04:32.964Z,17.70
2018-08-13T03:07:01.500Z,17.50
2018-08-13T03:09:29.992Z,17.50
2018-08-13T03:11:58.525Z,17.40
2018-08-13T03:14:27.313Z,17.40
2018-08-13T03:16:55.904Z,17.40
2018-08-13T03:19:24.648Z,17.30
2018-08-13T03:21:53.162Z,17.30
2018-08-13T03:24:21.717Z,17.20
2018-08-13T03:26:50.292Z,17.30
2018-08-13T03:29:18.822Z,17.20
2018-08-13T03:31:47.343Z,17.30
2018-08-13T03:34:15.879Z,17.30
2018-08-13T03:36:44.335Z,17.20
2018-08-13T03:39:14.047Z,17.20
2018-08-13T03:41:43.432Z,17.10
2018-08-13T03:44:12.654Z,17.20
2018-08-13T03:46:41.200Z,17.20
2018-08-13T03:49:11.166Z,17.10
2018-08-13T03:51:40.383Z,17.10
2018-08-13T03:54:08.901Z,17.10
2018-08-13T03:56:37.484Z,17.00
2018-08-13T03:59:06.023Z,17.10
2018-08-13T04:01:34.912Z,17.00
2018-08-13T04:04:03.515Z,17.00
2018-08-13T04:06:32.254Z,17.00
2018-08-13T04:09:01.736Z,17.00
2018-08-13T04:11:30.280Z,17.00
2018-08-13T04:13:58.841Z,16.90
2018-08-13T04:16:27.362Z,16.90
2018-08-13T04:18:55.880Z,16.80
2018-08-13T04:21:24.401Z,16.80
2018-08-13T04:23:52.909Z,16.80
2018-08-13T04:26:21.657Z,16.80
2018-08-13T04:28:50.316Z,16.80
2018-08-13T04:31:18.802Z,16.80
2018-08-13T04:33:47.305Z,16.80
2018-08-13T04:36:15.824Z,16.80
2018-08-13T04:38:44.437Z,16.80
2018-08-13T04:41:12.944Z,16.90
2018-08-13T04:43:41.409Z,16.80
2018-08-13T04:46:09.903Z,16.90
2018-08-13T04:48:38.432Z,16.90
2018-08-13T04:51:06.948Z,16.90
2018-08-13T04:53:35.475Z,16.90
2018-08-13T04:56:04.071Z,16.90
2018-08-13T04:58:32.629Z,16.90
2018-08-13T05:01:01.133Z,16.90
2018-08-13T05:03:29.672Z,16.90
2018-08-13T05:05:58.184Z,16.80
2018-08-13T05:08:26.685Z,16.90
2018-08-13T05:10:55.192Z,16.90
2018-08-13T05:13:23.696Z,16.90
2018-08-13T05:15:52.184Z,17.00
2018-08-13T05:18:20.672Z,16.90
2018-08-13T05:20:49.168Z,17.00
2018-08-13T05:23:17.680Z,17.00
2018-08-13T05:25:46.192Z,17.00
2018-08-13T05:28:14.720Z,17.00
2018-08-13T05:30:43.220Z,17.10
2018-08-13T05:33:11.721Z,17.10
2018-08-13T05:35:40.247Z,17.20
2018-08-13T05:38:08.785Z,17.40
2018-08-13T05:40:37.321Z,17.50
2018-08-13T05:43:06.360Z,17.60
2018-08-13T05:45:34.925Z,17.70
2018-08-13T05:48:03.631Z,17.80
2018-08-13T05:50:32.175Z,18.00
2018-08-13T05:53:00.791Z,18.00
2018-08-13T05:55:29.320Z,18.10
2018-08-13T05:57:57.843Z,18.10
2018-08-13T06:00:26.356Z,18.20
2018-08-13T06:02:54.898Z,18.20
2018-08-13T06:05:23.626Z,18.10
2018-08-13T06:07:52.139Z,18.10
2018-08-13T06:10:20.644Z,18.10
2018-08-13T06:12:49.165Z,18.10
2018-08-13T06:15:17.733Z,18.20
2018-08-13T06:17:46.252Z,18.20
2018-08-13T06:20:14.808Z,18.30
2018-08-13T06:22:43.952Z,18.30
2018-08-13T06:25:13.489Z,18.40
2018-08-13T06:27:41.992Z,18.60
2018-08-13T06:30:13.843Z,18.80
2018-08-13T06:32:42.927Z,18.90
2018-08-13T06:35:12.600Z,19.10
2018-08-13T06:37:41.921Z,19.20
2018-08-13T06:40:10.533Z,19.40
2018-08-13T06:42:39.876Z,19.50
2018-08-13T06:45:09.721Z,19.60
2018-08-13T06:47:39.348Z,19.70
2018-08-13T06:50:10.074Z,19.70
2018-08-13T06:52:38.644Z,19.80
2018-08-13T06:55:07.450Z,20.00
2018-08-13T06:57:36.273Z,19.90
2018-08-13T07:00:07.711Z,19.90
2018-08-13T07:02:36.228Z,20.00
2018-08-13T07:05:06.503Z,19.90
2018-08-13T07:07:35.048Z,19.80
2018-08-13T07:10:03.740Z,19.70
2018-08-13T07:12:32.279Z,19.70
2018-08-13T07:15:00.947Z,19.70
2018-08-13T07:17:29.453Z,19.70
2018-08-13T07:19:57.980Z,19.80
2018-08-13T07:22:26.470Z,19.90
2018-08-13T07:24:55.024Z,20.10
2018-08-13T07:27:23.577Z,20.20
2018-08-13T07:29:52.195Z,20.30
2018-08-13T07:32:20.701Z,20.50
2018-08-13T07:34:49.596Z,20.50
2018-08-13T07:37:18.112Z,20.50
2018-08-13T07:39:46.597Z,20.50
2018-08-13T07:42:15.184Z,20.60
2018-08-13T07:44:43.699Z,20.80
2018-08-13T07:47:12.208Z,20.90
2018-08-13T07:49:40.755Z,21.00
2018-08-13T07:52:09.484Z,21.10
2018-08-13T07:54:38.017Z,21.10
2018-08-13T07:57:06.495Z,21.20
2018-08-13T07:59:35.021Z,21.20
2018-08-13T08:02:03.600Z,21.20
2018-08-13T08:04:32.148Z,21.20
2018-08-13T08:07:00.780Z,21.20
2018-08-13T08:09:29.304Z,21.20
2018-08-13T08:11:57.823Z,21.20
2018-08-13T08:14:26.324Z,21.30
2018-08-13T08:16:54.796Z,21.40
2018-08-13T08:19:23.308Z,21.70
2018-08-13T08:21:51.804Z,21.90
2018-08-13T08:24:20.345Z,22.20
2018-08-13T08:26:48.876Z,22.30
2018-08-13T08:29:17.427Z,22.50
2018-08-13T08:31:45.928Z,22.60
2018-08-13T08:34:14.423Z,22.70
2018-08-13T08:36:42.973Z,22.80
2018-08-13T08:39:13.616Z,22.90
2018-08-13T08:41:42.624Z,22.90
2018-08-13T08:44:11.597Z,22.90
2018-08-13T08:46:40.807Z,22.90
2018-08-13T08:49:09.365Z,23.00
2018-08-13T08:51:39.200Z,23.10
2018-08-13T08:54:08.488Z,23.30
2018-08-13T08:56:37.198Z,23.50
2018-08-13T08:59:06.988Z,23.60
2018-08-13T09:01:36.085Z,23.70
2018-08-13T09:04:05.009Z,23.60
2018-08-13T09:06:33.548Z,23.60
2018-08-13T09:09:02.096Z,23.50
2018-08-13T09:11:30.584Z,23.50
2018-08-13T09:13:59.129Z,23.60
2018-08-13T09:16:28.491Z,23.50
2018-08-13T09:19:08.282Z,23.20
2018-08-13T09:21:37.560Z,23.20
2018-08-13T09:24:17.939Z,23.20
2018-08-13T09:26:57.744Z,23.10
2018-08-13T09:29:37.540Z,23.20
2018-08-13T09:32:20.436Z,23.20
2018-08-13T09:35:02.200Z,23.20
2018-08-13T09:37:30.668Z,23.20
2018-08-13T09:39:59.178Z,23.20
2018-08-13T09:42:27.655Z,23.10
2018-08-13T09:44:56.192Z,23.00
2018-08-13T09:47:24.936Z,22.90
2018-08-13T09:49:53.464Z,22.90
2018-08-13T09:52:22.037Z,22.80
2018-08-13T09:54:50.552Z,22.60
2018-08-13T09:57:19.100Z,22.40
2018-08-13T09:59:47.612Z,22.20
2018-08-13T10:02:16.132Z,22.10
2018-08-13T10:04:44.716Z,22.00
2018-08-13T10:07:13.224Z,21.90
2018-08-13T10:09:41.737Z,21.90
2018-08-13T10:12:10.300Z,21.80
2018-08-13T10:14:38.796Z,21.70
2018-08-13T10:17:07.349Z,21.80
2018-08-13T10:19:35.908Z,21.70
2018-08-13T10:22:04.446Z,21.70
2018-08-13T10:24:33.008Z,21.70
2018-08-13T10:27:01.520Z,21.60
2018-08-13T10:29:30.061Z,21.60
2018-08-13T10:31:58.616Z,21.70
2018-08-13T10:34:27.157Z,21.70
2018-08-13T10:36:55.683Z,21.70
2018-08-13T10:39:24.235Z,21.80
2018-08-13T10:41:52.816Z,22.00
2018-08-13T10:44:21.321Z,22.10
2018-08-13T10:46:49.856Z,22.20
2018-08-13T10:49:18.323Z,22.30
2018-08-13T10:51:46.837Z,22.30
2018-08-13T10:54:15.344Z,22.40
2018-08-13T10:56:43.869Z,22.40
2018-08-13T10:59:12.372Z,22.50
2018-08-13T11:01:40.912Z,22.60
2018-08-13T11:04:09.424Z,22.60
2018-08-13T11:06:37.928Z,22.60
2018-08-13T11:09:09.479Z,22.60
2018-08-13T11:11:37.991Z,22.70
2018-08-13T11:14:06.477Z,22.80
2018-08-13T11:16:35.016Z,22.90
2018-08-13T11:19:03.788Z,23.00
2018-08-13T11:21:32.632Z,23.20
2018-08-13T11:24:01.161Z,23.20
2018-08-13T11:26:29.743Z,23.10
2018-08-13T11:28:58.256Z,23.00
2018-08-13T11:31:26.809Z,23.00
2018-08-13T11:33:55.305Z,22.90
2018-08-13T11:36:23.824Z,22.90
2018-08-13T11:38:52.344Z,22.80
2018-08-13T11:41:20.853Z,22.70
2018-08-13T11:43:49.385Z,22.70
2018-08-13T11:46:18.030Z,22.70
2018-08-13T11:48:46.504Z,22.70
2018-08-13T11:51:15.020Z,22.60
2018-08-13T11:53:43.528Z,22.50
2018-08-13T11:56:12.091Z,22.50
2018-08-13T11:58:40.660Z,22.60
2018-08-13T12:01:09.302Z,22.60
2018-08-13T12:03:37.700Z,22.60
2018-08-13T12:06:06.240Z,22.50
2018-08-13T12:08:34.706Z,22.50
2018-08-13T12:11:03.267Z,22.60
2018-08-13T12:13:31.820Z,22.60
2018-08-13T12:16:00.360Z,22.50
2018-08-13T12:18:28.909Z,22.60
2018-08-13T12:20:57.408Z,22.60
2018-08-13T12:23:25.958Z,22.60
2018-08-13T12:25:54.516Z,22.60
2018-08-13T12:28:23.060Z,22.60
2018-08-13T12:30:51.572Z,22.50
2018-08-13T12:33:20.040Z,22.30
2018-08-13T12:35:48.617Z,22.20
2018-08-13T12:38:17.144Z,22.10
2018-08-13T12:40:45.656Z,22.00
2018-08-13T12:43:14.176Z,21.90
2018-08-13T12:45:42.698Z,21.80
2018-08-13T12:48:11.224Z,21.70
2018-08-13T12:50:39.696Z,21.60
2018-08-13T12:53:08.216Z,21.50
2018-08-13T12:55:36.712Z,21.40
2018-08-13T12:58:05.252Z,21.40
2018-08-13T13:00:33.736Z,21.30
2018-08-13T13:03:02.276Z,21.30
2018-08-13T13:05:30.821Z,21.40
2018-08-13T13:07:59.372Z,21.40
2018-08-13T13:10:27.971Z,21.40
2018-08-13T13:12:56.504Z,21.50
2018-08-13T13:15:25.080Z,21.60
2018-08-13T13:17:53.573Z,21.60
2018-08-13T13:20:23.353Z,21.60
2018-08-13T13:22:52.196Z,21.50
2018-08-13T13:25:21.081Z,21.50
2018-08-13T13:27:49.632Z,21.60
2018-08-13T13:30:18.232Z,21.60
2018-08-13T13:32:46.840Z,21.60
2018-08-13T13:35:16.677Z,21.50
2018-08-13T13:37:45.188Z,21.70
2018-08-13T13:40:14.938Z,21.80
2018-08-13T13:42:43.493Z,22.10
2018-08-13T13:45:12.564Z,22.40
2018-08-13T13:47:41.072Z,22.40
2018-08-13T13:50:12.896Z,22.60
2018-08-13T13:52:41.398Z,22.70
2018-08-13T13:55:09.953Z,23.00
2018-08-13T13:57:38.430Z,23.20
2018-08-13T14:00:14.396Z,23.50
2018-08-13T14:02:42.957Z,24.10
2018-08-13T14:05:11.444Z,24.30
2018-08-13T14:07:39.960Z,24.20
2018-08-13T14:10:12.398Z,24.10
2018-08-13T14:12:40.908Z,23.90
2018-08-13T14:15:11.316Z,23.70
2018-08-13T14:17:39.939Z,23.80
2018-08-13T14:20:09.707Z,23.90
2018-08-13T14:22:38.532Z,23.90
2018-08-13T14:25:08.716Z,23.90
2018-08-13T14:27:37.300Z,23.80
2018-08-13T14:30:12.477Z,23.70
2018-08-13T14:32:40.968Z,23.60
2018-08-13T14:35:09.541Z,23.50
2018-08-13T14:37:38.304Z,23.30
2018-08-13T14:40:08.929Z,23.20
2018-08-13T14:42:37.464Z,23.10
2018-08-13T14:45:07.724Z,23.10
2018-08-13T14:47:36.186Z,22.90
2018-08-13T14:50:05.569Z,22.80
2018-08-13T14:52:34.132Z,22.80
2018-08-13T14:55:02.649Z,22.90
2018-08-13T14:57:31.224Z,23.00
2018-08-13T14:59:59.776Z,23.30
2018-08-13T15:02:28.293Z,23.60
2018-08-13T15:04:56.764Z,23.90
2018-08-13T15:07:25.315Z,24.20
2018-08-13T15:09:53.820Z,24.60
2018-08-13T15:12:22.352Z,24.90
2018-08-13T15:14:50.888Z,25.20
2018-08-13T15:17:19.371Z,25.40
2018-08-13T15:19:47.877Z,25.50
2018-08-13T15:22:16.383Z,25.60
2018-08-13T15:24:44.904Z,25.30
2018-08-13T15:27:13.409Z,25.30
2018-08-13T15:29:41.928Z,25.00
2018-08-13T15:32:10.388Z,24.80
2018-08-13T15:34:38.864Z,24.50
2018-08-13T15:37:07.373Z,24.30
2018-08-13T15:39:35.921Z,24.40
2018-08-13T15:42:04.481Z,24.40
2018-08-13T15:44:32.977Z,24.60
2018-08-13T15:47:01.520Z,24.80
2018-08-13T15:49:30.040Z,24.80
2018-08-13T15:51:58.576Z,24.90
2018-08-13T15:54:27.068Z,24.90
2018-08-13T15:56:55.569Z,24.80
2018-08-13T15:59:24.042Z,24.80
2018-08-13T16:01:52.630Z,24.70
2018-08-13T16:04:21.090Z,24.60
2018-08-13T16:06:49.586Z,24.60
2018-08-13T16:09:18.104Z,24.60
2018-08-13T16:11:46.572Z,24.60
2018-08-13T16:14:15.059Z,24.80
2018-08-13T16:16:43.512Z,24.90
2018-08-13T16:19:12.024Z,25.00
2018-08-13T16:21:40.509Z,24.90
2018-08-13T16:24:09.039Z,24.70
2018-08-13T16:26:37.602Z,24.60
2018-08-13T16:29:06.719Z,24.40
2018-08-13T16:31:35.216Z,24.40
2018-08-13T16:34:03.784Z,24.40
2018-08-13T16:36:32.304Z,24.30
2018-08-13T16:39:00.776Z,24.40
2018-08-13T16:41:29.276Z,24.40
2018-08-13T16:43:57.792Z,24.30
2018-08-13T16:46:26.296Z,24.30
2018-08-13T16:48:54.796Z,24.20
2018-08-13T16:51:23.321Z,24.20
2018-08-13T16:53:51.848Z,24.10
2018-08-13T16:56:20.399Z,24.00
2018-08-13T16:58:48.916Z,23.90
2018-08-13T17:01:17.460Z,23.80
2018-08-13T17:03:45.955Z,23.70
2018-08-13T17:06:14.520Z,23.70
2018-08-13T17:08:43.033Z,23.60
2018-08-13T17:11:11.545Z,23.60
2018-08-13T17:13:40.101Z,23.60
2018-08-13T17:16:09.349Z,23.60
2018-08-13T17:18:37.848Z,23.60
2018-08-13T17:21:06.435Z,23.60
2018-08-13T17:23:34.992Z,23.50
2018-08-13T17:26:03.524Z,23.50
2018-08-13T17:28:32.041Z,23.40
2018-08-13T17:31:00.659Z,23.20
2018-08-13T17:33:29.161Z,22.50
2018-08-13T17:35:57.700Z,22.00
2018-08-13T17:38:26.224Z,21.70
2018-08-13T17:40:54.788Z,21.40
2018-08-13T17:43:23.380Z,21.10
2018-08-13T17:45:51.907Z,20.90
2018-08-13T17:48:20.481Z,20.70
2018-08-13T17:50:48.996Z,20.50
2018-08-13T17:53:17.524Z,20.20
2018-08-13T17:55:46.056Z,20.10
2018-08-13T17:58:14.640Z,20.00
2018-08-13T18:00:43.132Z,20.00
2018-08-13T18:03:11.665Z,19.90
2018-08-13T18:05:40.204Z,20.00
2018-08-13T18:08:08.768Z,19.90
2018-08-13T18:10:37.343Z,20.00
2018-08-13T18:13:07.879Z,20.00
2018-08-13T18:15:36.481Z,19.90
2018-08-13T18:18:05.259Z,19.90
2018-08-13T18:20:33.813Z,19.80
2018-08-13T18:23:02.319Z,19.90
2018-08-13T18:25:30.795Z,19.80
2018-08-13T18:27:59.308Z,19.90
2018-08-13T18:30:28.941Z,19.90
2018-08-13T18:32:57.533Z,19.90
2018-08-13T18:35:26.081Z,20.00
2018-08-13T18:37:54.613Z,19.80
2018-08-13T18:40:28.037Z,19.70
2018-08-13T18:42:56.618Z,19.60
2018-08-13T18:45:25.118Z,19.50
2018-08-13T18:47:53.665Z,19.50
2018-08-13T18:50:22.937Z,19.50
2018-08-13T18:52:51.680Z,19.50
2018-08-13T18:55:21.432Z,19.50
2018-08-13T18:57:50.455Z,19.50
2018-08-13T19:00:21.581Z,19.50
2018-08-13T19:02:50.124Z,19.40
2018-08-13T19:05:19.710Z,19.40
2018-08-13T19:07:48.463Z,19.40
2018-08-13T19:10:17.805Z,19.40
2018-08-13T19:12:46.364Z,19.40
2018-08-13T19:15:19.064Z,19.40
2018-08-13T19:17:47.921Z,19.40
2018-08-13T19:20:16.489Z,19.40
2018-08-13T19:22:45.426Z,19.40
2018-08-13T19:25:17.704Z,19.40
2018-08-13T19:27:46.654Z,19.40
2018-08-13T19:30:16.592Z,19.30
2018-08-13T19:32:46.612Z,19.30
2018-08-13T19:35:15.132Z,19.20
2018-08-13T19:37:43.952Z,19.20
2018-08-13T19:40:15.668Z,19.20
2018-08-13T19:42:45.156Z,19.10
2018-08-13T19:45:14.787Z,19.10
2018-08-13T19:47:43.672Z,19.10
2018-08-13T19:50:12.571Z,19.10
2018-08-13T19:52:42.449Z,19.10
2018-08-13T19:55:11.360Z,19.00
2018-08-13T19:57:40.235Z,19.00
2018-08-13T20:00:19.264Z,19.00
2018-08-13T20:02:48.564Z,19.00
2018-08-13T20:05:18.091Z,19.00
2018-08-13T20:07:46.588Z,19.00
2018-08-13T20:10:15.752Z,19.00
2018-08-13T20:12:45.080Z,19.00
2018-08-13T20:15:13.747Z,18.90
2018-08-13T20:17:42.548Z,18.90
2018-08-13T20:20:14.275Z,18.80
2018-08-13T20:22:43.808Z,18.80
2018-08-13T20:25:13.780Z,18.80
2018-08-13T20:27:42.492Z,18.80
2018-08-13T20:30:13.564Z,18.80
2018-08-13T20:32:42.738Z,18.80
2018-08-13T20:35:11.252Z,18.70
2018-08-13T20:37:40.054Z,18.70
2018-08-13T20:40:10.780Z,18.70
2018-08-13T20:42:40.135Z,18.70
2018-08-13T20:45:11.416Z,18.60
2018-08-13T20:47:39.941Z,18.70
2018-08-13T20:50:11.169Z,18.60
2018-08-13T20:52:39.817Z,18.60
2018-08-13T20:55:15.914Z,18.60
2018-08-13T20:57:45.392Z,18.60
2018-08-13T21:00:15.331Z,18.60
2018-08-13T21:02:45.240Z,18.60
2018-08-13T21:05:13.760Z,18.60
2018-08-13T21:07:42.499Z,18.60
2018-08-13T21:10:14.093Z,18.60
2018-08-13T21:12:42.639Z,18.60
2018-08-13T21:15:12.853Z,18.50
2018-08-13T21:17:41.664Z,18.50
2018-08-13T21:20:11.596Z,18.50
2018-08-13T21:22:40.159Z,18.50
2018-08-13T21:25:12.664Z,18.50
2018-08-13T21:27:42.050Z,18.50
2018-08-13T21:30:10.756Z,18.40
2018-08-13T21:32:40.011Z,18.40
2018-08-13T21:35:08.893Z,18.40
2018-08-13T21:37:37.437Z,18.40
2018-08-13T21:40:07.848Z,18.40
2018-08-13T21:42:36.400Z,18.30
2018-08-13T21:45:05.361Z,18.30
2018-08-13T21:47:33.901Z,18.30
2018-08-13T21:50:02.430Z,18.30
2018-08-13T21:52:30.921Z,18.20
2018-08-13T21:54:59.429Z,18.20
2018-08-13T21:57:27.953Z,18.20
2018-08-13T21:59:56.420Z,18.20
2018-08-13T22:02:25.021Z,18.10
2018-08-13T22:04:53.560Z,18.10
2018-08-13T22:07:22.085Z,18.10
2018-08-13T22:09:50.601Z,18.00
2018-08-13T22:12:20.560Z,18.10
2018-08-13T22:14:50.057Z,18.00
2018-08-13T22:17:18.589Z,18.00
2018-08-13T22:19:47.112Z,18.00
2018-08-13T22:22:15.641Z,18.00
2018-08-13T22:24:55.532Z,18.00
2018-08-13T22:27:24.056Z,18.00
2018-08-13T22:29:52.552Z,18.10
2018-08-13T22:32:21.241Z,18.10
2018-08-13T22:34:49.732Z,18.10
2018-08-13T22:37:18.276Z,18.10
2018-08-13T22:39:46.744Z,18.10
2018-08-13T22:42:15.288Z,18.10
2018-08-13T22:44:43.772Z,18.20
2018-08-13T22:47:12.269Z,18.10
2018-08-13T22:49:41.406Z,18.20
2018-08-13T22:52:10.264Z,18.20
2018-08-13T22:54:38.712Z,18.20
2018-08-13T22:57:07.184Z,18.20
2018-08-13T22:59:35.713Z,18.10
2018-08-13T23:02:04.240Z,18.10
2018-08-13T23:04:32.785Z,18.10
2018-08-13T23:07:01.320Z,18.10
2018-08-13T23:09:29.824Z,18.10
2018-08-13T23:11:58.312Z,18.10
2018-08-13T23:14:26.864Z,18.10
2018-08-13T23:16:55.380Z,18.00
2018-08-13T23:19:23.857Z,18.00
2018-08-13T23:21:52.380Z,18.00
2018-08-13T23:24:20.852Z,18.00
2018-08-13T23:26:49.348Z,18.00
2018-08-13T23:29:17.813Z,18.00
2018-08-13T23:31:46.336Z,18.00
2018-08-13T23:34:14.837Z,18.00
2018-08-13T23:36:43.356Z,18.00
2018-08-13T23:39:13.372Z,18.00
2018-08-13T23:41:42.808Z,18.00
2018-08-13T23:44:11.608Z,18.00
2018-08-13T23:46:40.484Z,17.90
2018-08-13T23:49:09.313Z,17.90
2018-08-13T23:51:37.812Z,17.90
2018-08-13T23:54:06.348Z,17.90
2018-08-13T23:56:34.864Z,17.90
2018-08-13T23:59:03.425Z,17.80
